createdAt,value
2023-05-20T00:01:51.891Z,3.00
2023-05-20T00:04:18.752Z,3.67
2023-05-20T00:06:45.499Z,3.10
2023-05-20T00:09:12.153Z,2.97
2023-05-20T00:11:38.782Z,2.70
2023-05-20T00:14:05.515Z,2.53
2023-05-20T00:16:33.341Z,2.93
2023-05-20T00:19:00.395Z,3.10
2023-05-20T00:21:27.096Z,2.93
2023-05-20T00:23:53.812Z,2.87
2023-05-20T00:26:21.386Z,3.03
2023-05-20T00:28:48.177Z,3.00
2023-05-20T00:31:14.891Z,2.63
2023-05-20T00:33:41.541Z,2.60
2023-05-20T00:36:08.679Z,2.67
2023-05-20T00:38:35.346Z,2.40
2023-05-20T00:41:02.015Z,3.00
2023-05-20T00:43:28.713Z,2.87
2023-05-20T00:45:55.838Z,2.57
2023-05-20T00:48:22.860Z,2.20
2023-05-20T00:50:50.462Z,2.60
2023-05-20T00:53:21.420Z,2.20
2023-05-20T00:55:48.479Z,2.57
2023-05-20T00:58:15.348Z,2.07
2023-05-20T01:00:42.916Z,2.50
2023-05-20T01:03:10.154Z,2.40
2023-05-20T01:05:38.168Z,2.90
2023-05-20T01:08:06.898Z,2.10
2023-05-20T01:10:35.863Z,2.37
2023-05-20T01:13:08.574Z,2.43
2023-05-20T01:15:36.186Z,2.53
2023-05-20T01:18:07.444Z,2.73
2023-05-20T01:20:35.516Z,2.40
2023-05-20T01:23:04.120Z,2.53
2023-05-20T01:25:30.860Z,2.70
2023-05-20T01:27:58.126Z,2.77
2023-05-20T01:30:33.631Z,2.80
2023-05-20T01:33:06.932Z,2.57
2023-05-20T01:35:34.653Z,3.10
2023-05-20T01:38:02.533Z,2.17
2023-05-20T01:40:29.839Z,2.70
2023-05-20T01:42:58.118Z,2.53
2023-05-20T01:45:25.573Z,2.67
2023-05-20T01:47:52.545Z,2.53
2023-05-20T01:50:19.395Z,2.37
2023-05-20T01:52:46.101Z,2.43
2023-05-20T01:55:12.731Z,2.40
2023-05-20T01:57:39.343Z,2.30
2023-05-20T02:00:06.780Z,2.23
2023-05-20T02:02:33.485Z,2.70
2023-05-20T02:05:00.339Z,2.30
2023-05-20T02:07:27.002Z,2.40
2023-05-20T02:09:53.610Z,2.10
2023-05-20T02:12:20.254Z,2.25
2023-05-20T02:14:47.869Z,2.17
2023-05-20T02:17:16.918Z,2.30
2023-05-20T02:19:44.990Z,2.30
2023-05-20T02:22:11.790Z,2.30
2023-05-20T02:24:38.687Z,1.97
2023-05-20T02:27:06.393Z,2.13
2023-05-20T02:29:33.177Z,2.00
2023-05-20T02:31:59.842Z,2.57
2023-05-20T02:34:27.408Z,3.00
2023-05-20T02:36:54.394Z,2.10
2023-05-20T02:39:21.026Z,2.03
2023-05-20T02:41:47.744Z,1.97
2023-05-20T02:44:14.847Z,2.70
2023-05-20T02:46:41.581Z,2.40
2023-05-20T02:49:08.311Z,2.05
2023-05-20T02:51:35.114Z,2.50
2023-05-20T02:54:01.837Z,3.00
2023-05-20T02:56:28.671Z,3.45
2023-05-20T02:58:55.402Z,3.23
2023-05-20T03:01:23.309Z,2.57
2023-05-20T03:03:50.053Z,2.00
2023-05-20T03:06:16.717Z,2.30
2023-05-20T03:08:43.375Z,2.70
2023-05-20T03:11:10.089Z,2.15
2023-05-20T03:13:36.774Z,2.07
2023-05-20T03:16:03.662Z,1.80
2023-05-20T03:18:30.695Z,2.20
2023-05-20T03:20:57.366Z,2.20
2023-05-20T03:23:24.076Z,2.73
2023-05-20T03:25:50.716Z,2.53
2023-05-20T03:28:17.407Z,2.30
2023-05-20T03:30:44.169Z,2.25
2023-05-20T03:33:10.774Z,2.78
2023-05-20T03:35:37.637Z,2.45
2023-05-20T03:38:04.452Z,2.50
2023-05-20T03:40:31.123Z,2.45
2023-05-20T03:42:58.793Z,2.60
2023-05-20T03:45:25.436Z,2.10
2023-05-20T03:47:52.207Z,3.15
2023-05-20T03:50:19.962Z,2.80
2023-05-20T03:52:46.643Z,3.70
2023-05-20T03:55:13.440Z,2.80
2023-05-20T03:57:40.100Z,2.60
2023-05-20T04:00:11.046Z,2.77
2023-05-20T04:02:38.491Z,3.27
2023-05-20T04:05:05.909Z,2.70
2023-05-20T04:07:32.706Z,2.63
2023-05-20T04:09:59.523Z,2.23
2023-05-20T04:12:30.527Z,2.87
2023-05-20T04:15:03.513Z,3.10
2023-05-20T04:17:31.095Z,2.43
2023-05-20T04:19:59.629Z,3.40
2023-05-20T04:22:26.987Z,2.50
2023-05-20T04:24:53.779Z,2.03
2023-05-20T04:27:21.394Z,2.93
2023-05-20T04:29:48.309Z,2.30
2023-05-20T04:32:18.669Z,2.60
2023-05-20T04:34:46.138Z,2.57
2023-05-20T04:37:13.161Z,3.20
2023-05-20T04:39:40.157Z,2.10
2023-05-20T04:42:06.810Z,4.97
2023-05-20T04:44:33.454Z,6.53
2023-05-20T04:47:00.353Z,5.70
2023-05-20T04:49:27.092Z,5.30
2023-05-20T04:51:55.381Z,4.53
2023-05-20T04:54:22.526Z,5.13
2023-05-20T04:56:49.171Z,4.63
2023-05-20T04:59:15.841Z,4.47
2023-05-20T05:01:42.803Z,4.67
2023-05-20T05:04:09.637Z,3.53
2023-05-20T05:06:36.517Z,3.40
2023-05-20T05:09:03.228Z,3.27
2023-05-20T05:11:29.882Z,3.07
2023-05-20T05:13:56.798Z,2.97
2023-05-20T05:16:23.525Z,3.37
2023-05-20T05:18:50.305Z,2.80
2023-05-20T05:21:17.232Z,2.13
2023-05-20T05:23:43.941Z,2.10
2023-05-20T05:26:10.601Z,2.13
2023-05-20T05:28:37.274Z,2.90
2023-05-20T05:31:04.004Z,2.63
2023-05-20T05:33:30.811Z,2.90
2023-05-20T05:35:59.235Z,3.20
2023-05-20T05:38:26.152Z,3.13
2023-05-20T05:40:53.457Z,3.23
2023-05-20T05:43:20.235Z,2.90
2023-05-20T05:45:46.900Z,2.43
2023-05-20T05:48:13.528Z,2.30
2023-05-20T05:50:44.414Z,3.90
2023-05-20T05:53:11.116Z,3.27
2023-05-20T05:55:37.748Z,3.10
2023-05-20T05:58:04.374Z,3.00
2023-05-20T06:00:30.998Z,2.80
2023-05-20T06:02:58.063Z,2.53
2023-05-20T06:05:25.837Z,2.40
2023-05-20T06:07:54.397Z,2.30
2023-05-20T06:10:21.730Z,2.33
2023-05-20T06:12:48.352Z,2.40
2023-05-20T06:15:15.137Z,3.27
2023-05-20T06:17:41.865Z,2.77
2023-05-20T06:20:08.930Z,2.70
2023-05-20T06:22:35.745Z,2.90
2023-05-20T06:25:02.482Z,2.73
2023-05-20T06:27:29.200Z,2.70
2023-05-20T06:29:56.019Z,2.63
2023-05-20T06:32:23.891Z,2.63
2023-05-20T06:34:50.850Z,2.67
2023-05-20T06:37:17.669Z,2.50
2023-05-20T06:39:44.820Z,2.30
2023-05-20T06:42:11.427Z,3.23
2023-05-20T06:44:38.070Z,2.93
2023-05-20T06:47:04.897Z,3.20
2023-05-20T06:49:31.508Z,2.73
2023-05-20T06:51:58.229Z,3.57
2023-05-20T06:54:24.888Z,3.47
2023-05-20T06:56:51.693Z,2.83
2023-05-20T06:59:18.424Z,3.10
2023-05-20T07:01:45.131Z,2.97
2023-05-20T07:04:11.976Z,3.40
2023-05-20T07:06:39.808Z,3.70
2023-05-20T07:09:06.520Z,4.10
2023-05-20T07:11:33.332Z,3.00
2023-05-20T07:14:00.350Z,2.80
2023-05-20T07:16:27.042Z,2.80
2023-05-20T07:18:53.742Z,2.87
2023-05-20T07:21:20.499Z,2.70
2023-05-20T07:23:47.136Z,4.10
2023-05-20T07:26:13.847Z,3.10
2023-05-20T07:28:40.513Z,3.87
2023-05-20T07:31:07.152Z,2.50
2023-05-20T07:33:33.808Z,3.40
2023-05-20T07:36:00.569Z,3.07
2023-05-20T07:38:29.840Z,4.63
2023-05-20T07:40:56.723Z,3.40
2023-05-20T07:43:23.363Z,3.53
2023-05-20T07:45:50.059Z,3.30
2023-05-20T07:48:16.865Z,2.93
2023-05-20T07:50:44.315Z,3.40
2023-05-20T07:53:18.388Z,3.47
2023-05-20T07:55:45.043Z,2.97
2023-05-20T07:58:11.731Z,2.63
2023-05-20T08:00:38.405Z,3.03
2023-05-20T08:03:05.408Z,3.30
2023-05-20T08:05:32.336Z,2.30
2023-05-20T08:07:59.395Z,3.17
2023-05-20T08:10:26.120Z,2.57
2023-05-20T08:12:52.754Z,3.70
2023-05-20T08:15:19.440Z,3.60
2023-05-20T08:17:46.225Z,3.57
2023-05-20T08:20:13.372Z,3.23
2023-05-20T08:22:40.804Z,3.30
2023-05-20T08:25:10.693Z,2.97
2023-05-20T08:27:37.597Z,3.30
2023-05-20T08:30:05.339Z,3.37
2023-05-20T08:32:32.051Z,3.07
2023-05-20T08:35:01.599Z,3.87
2023-05-20T08:37:29.320Z,3.50
2023-05-20T08:39:56.219Z,3.20
2023-05-20T08:42:24.340Z,3.50
2023-05-20T08:44:54.488Z,3.57
2023-05-20T08:47:22.010Z,3.60
2023-05-20T08:49:49.631Z,3.97
2023-05-20T08:52:21.081Z,4.60
2023-05-20T08:54:49.764Z,3.23
2023-05-20T08:57:16.773Z,3.40
2023-05-20T08:59:44.834Z,4.00
2023-05-20T09:02:11.722Z,3.27
2023-05-20T09:04:38.923Z,3.13
2023-05-20T09:07:05.969Z,3.23
2023-05-20T09:09:34.234Z,2.97
2023-05-20T09:12:03.055Z,3.40
2023-05-20T09:14:30.926Z,3.83
2023-05-20T09:16:57.697Z,3.30
2023-05-20T09:19:25.519Z,3.67
2023-05-20T09:21:55.032Z,3.87
2023-05-20T09:24:25.995Z,3.80
2023-05-20T09:26:53.091Z,3.93
2023-05-20T09:29:21.589Z,4.20
2023-05-20T09:31:49.348Z,3.23
2023-05-20T09:34:16.725Z,3.87
2023-05-20T09:36:45.094Z,3.80
2023-05-20T09:39:16.252Z,3.57
2023-05-20T09:42:05.747Z,3.93
2023-05-20T09:44:33.515Z,3.40
2023-05-20T09:47:01.774Z,3.70
2023-05-20T09:49:30.635Z,4.30
2023-05-20T09:51:59.183Z,3.20
2023-05-20T09:54:27.106Z,3.53
2023-05-20T09:56:54.605Z,3.30
2023-05-20T09:59:22.357Z,4.30
2023-05-20T10:01:49.311Z,4.13
2023-05-20T10:04:18.525Z,3.93
2023-05-20T10:07:11.843Z,3.90
2023-05-20T10:09:56.826Z,3.60
2023-05-20T10:12:46.488Z,3.90
2023-05-20T10:15:44.628Z,3.90
2023-05-20T10:18:30.280Z,4.13
2023-05-20T10:20:57.013Z,3.93
2023-05-20T10:23:27.594Z,4.10
2023-05-20T10:25:56.305Z,4.30
2023-05-20T10:28:36.413Z,4.87
2023-05-20T10:31:17.013Z,4.77
2023-05-20T10:33:45.401Z,4.97
2023-05-20T10:36:23.712Z,4.90
2023-05-20T10:38:58.307Z,5.40
2023-05-20T10:41:27.296Z,4.70
2023-05-20T10:44:05.038Z,4.73
2023-05-20T10:46:48.724Z,4.80
2023-05-20T10:49:21.816Z,5.73
2023-05-20T10:51:51.494Z,5.27
2023-05-20T10:54:18.323Z,4.40
2023-05-20T10:56:52.997Z,3.93
2023-05-20T10:59:21.595Z,5.17
2023-05-20T11:01:49.000Z,4.80
2023-05-20T11:04:17.398Z,4.87
2023-05-20T11:06:54.075Z,4.40
2023-05-20T11:09:21.440Z,5.23
2023-05-20T11:11:48.276Z,4.63
2023-05-20T11:14:15.251Z,5.13
2023-05-20T11:16:42.741Z,6.37
2023-05-20T11:19:14.783Z,4.03
2023-05-20T11:21:48.534Z,5.30
2023-05-20T11:24:24.425Z,4.97
2023-05-20T11:26:51.671Z,5.07
2023-05-20T11:29:19.899Z,5.33
2023-05-20T11:31:48.318Z,5.10
2023-05-20T11:34:15.095Z,4.53
2023-05-20T11:36:42.971Z,4.43
2023-05-20T11:39:14.732Z,5.33
2023-05-20T11:41:43.253Z,5.40
2023-05-20T11:44:12.273Z,4.73
2023-05-20T11:46:46.034Z,4.50
2023-05-20T11:49:16.510Z,4.90
2023-05-20T11:51:44.735Z,4.43
2023-05-20T11:54:11.685Z,3.97
2023-05-20T11:56:39.239Z,5.70
2023-05-20T11:59:07.280Z,4.90
2023-05-20T12:01:43.429Z,3.90
2023-05-20T12:04:13.800Z,4.80
2023-05-20T12:06:40.763Z,4.50
2023-05-20T12:09:08.821Z,5.50
2023-05-20T12:11:37.245Z,4.83
2023-05-20T12:14:04.473Z,5.27
2023-05-20T12:16:32.816Z,5.70
2023-05-20T12:19:00.496Z,5.70
2023-05-20T12:21:31.380Z,5.00
2023-05-20T12:23:59.782Z,4.77
2023-05-20T12:26:30.081Z,7.30
2023-05-20T12:28:57.060Z,6.10
2023-05-20T12:31:24.297Z,5.73
2023-05-20T12:33:51.292Z,5.27
2023-05-20T12:36:19.469Z,4.23
2023-05-20T12:38:46.589Z,4.73
2023-05-20T12:41:13.245Z,4.67
2023-05-20T12:43:39.864Z,4.90
2023-05-20T12:46:06.653Z,5.53
2023-05-20T12:48:33.559Z,5.40
2023-05-20T12:51:00.465Z,4.70
2023-05-20T12:53:27.119Z,5.10
2023-05-20T12:55:53.772Z,5.37
2023-05-20T12:58:20.696Z,5.20
2023-05-20T13:00:47.365Z,4.93
2023-05-20T13:03:14.182Z,5.20
2023-05-20T13:05:41.021Z,4.73
2023-05-20T13:08:10.113Z,5.40
2023-05-20T13:10:37.264Z,5.40
2023-05-20T13:13:04.471Z,5.50
2023-05-20T13:15:33.024Z,4.93
2023-05-20T13:18:01.365Z,5.70
2023-05-20T13:20:28.898Z,5.40
2023-05-20T13:22:55.538Z,5.67
2023-05-20T13:25:22.319Z,4.70
2023-05-20T13:27:48.977Z,5.63
2023-05-20T13:30:15.824Z,5.03
2023-05-20T13:32:42.570Z,5.60
2023-05-20T13:35:09.435Z,5.50
2023-05-20T13:37:36.134Z,5.50
2023-05-20T13:40:02.818Z,5.07
2023-05-20T13:42:29.427Z,5.83
2023-05-20T13:44:56.163Z,5.43
2023-05-20T13:47:22.926Z,6.30
2023-05-20T13:49:49.619Z,5.63
2023-05-20T13:52:16.353Z,5.53
2023-05-20T13:54:44.620Z,6.20
2023-05-20T13:57:11.293Z,5.20
2023-05-20T13:59:38.587Z,5.40
2023-05-20T14:02:05.787Z,5.60
2023-05-20T14:04:37.919Z,5.23
2023-05-20T14:07:07.697Z,5.63
2023-05-20T14:09:36.307Z,5.87
2023-05-20T14:12:03.098Z,11.80
2023-05-20T14:14:29.782Z,7.20
2023-05-20T14:16:56.408Z,5.27
2023-05-20T14:19:23.144Z,4.80
2023-05-20T14:21:49.857Z,5.63
2023-05-20T14:24:16.553Z,5.97
2023-05-20T14:26:43.211Z,5.17
2023-05-20T14:29:10.287Z,5.10
2023-05-20T14:31:39.245Z,5.23
2023-05-20T14:34:06.107Z,5.30
2023-05-20T14:36:32.881Z,5.00
2023-05-20T14:38:59.554Z,4.90
2023-05-20T14:41:26.260Z,5.13
2023-05-20T14:43:52.959Z,4.87
2023-05-20T14:46:19.637Z,5.37
2023-05-20T14:48:46.282Z,4.60
2023-05-20T14:51:12.982Z,5.87
2023-05-20T14:53:39.638Z,4.97
2023-05-20T14:56:06.404Z,5.83
2023-05-20T14:58:33.116Z,4.77
2023-05-20T15:01:00.061Z,7.00
2023-05-20T15:03:28.012Z,6.30
2023-05-20T15:05:54.795Z,6.00
2023-05-20T15:08:21.529Z,5.90
2023-05-20T15:10:48.168Z,4.70
2023-05-20T15:13:14.864Z,4.93
2023-05-20T15:15:41.509Z,6.07
2023-05-20T15:18:08.239Z,5.70
2023-05-20T15:20:35.098Z,4.90
2023-05-20T15:23:01.749Z,4.70
2023-05-20T15:25:28.367Z,5.20
2023-05-20T15:27:55.093Z,4.93
2023-05-20T15:30:22.820Z,4.90
2023-05-20T15:32:49.726Z,5.20
2023-05-20T15:35:16.633Z,4.73
2023-05-20T15:37:43.286Z,5.60
2023-05-20T15:40:10.490Z,5.67
2023-05-20T15:42:37.128Z,5.53
2023-05-20T15:45:03.887Z,5.03
2023-05-20T15:47:30.591Z,4.80
2023-05-20T15:49:57.828Z,4.60
2023-05-20T15:52:24.507Z,4.93
2023-05-20T15:54:51.257Z,5.40
2023-05-20T15:57:17.904Z,5.00
2023-05-20T15:59:44.546Z,5.07
2023-05-20T16:02:11.292Z,5.93
2023-05-20T16:04:38.017Z,4.73
2023-05-20T16:07:04.810Z,4.83
2023-05-20T16:09:31.487Z,5.80
2023-05-20T16:11:58.173Z,4.73
2023-05-20T16:14:24.917Z,5.03
2023-05-20T16:16:51.537Z,5.33
2023-05-20T16:19:18.330Z,5.33
2023-05-20T16:21:45.393Z,5.63
2023-05-20T16:24:12.468Z,4.50
2023-05-20T16:26:39.425Z,4.93
2023-05-20T16:29:06.492Z,5.20
2023-05-20T16:31:33.427Z,4.50
2023-05-20T16:34:00.119Z,5.07
2023-05-20T16:36:26.855Z,5.00
2023-05-20T16:38:53.506Z,5.70
2023-05-20T16:41:20.760Z,6.07
2023-05-20T16:43:47.417Z,5.17
2023-05-20T16:46:14.505Z,5.50
2023-05-20T16:48:42.260Z,5.40
2023-05-20T16:51:08.864Z,5.50
2023-05-20T16:53:35.496Z,5.23
2023-05-20T16:56:02.310Z,5.10
2023-05-20T16:58:29.006Z,5.20
2023-05-20T17:00:55.663Z,4.60
2023-05-20T17:03:22.448Z,5.17
2023-05-20T17:05:49.281Z,6.10
2023-05-20T17:08:16.348Z,5.90
2023-05-20T17:10:43.025Z,5.20
2023-05-20T17:13:09.742Z,6.00
2023-05-20T17:15:37.185Z,5.47
2023-05-20T17:18:04.232Z,5.83
2023-05-20T17:20:31.176Z,6.80
2023-05-20T17:22:57.869Z,5.80
2023-05-20T17:25:24.682Z,6.00
2023-05-20T17:27:51.567Z,6.03
2023-05-20T17:30:18.269Z,5.73
2023-05-20T17:32:44.986Z,6.63
2023-05-20T17:35:11.728Z,5.93
2023-05-20T17:37:44.893Z,6.33
2023-05-20T17:40:13.249Z,5.67
2023-05-20T17:42:40.388Z,5.97
2023-05-20T17:45:07.409Z,5.63
2023-05-20T17:47:34.135Z,6.90
2023-05-20T17:50:02.407Z,5.63
2023-05-20T17:52:29.060Z,5.70
2023-05-20T17:54:55.681Z,6.53
2023-05-20T17:57:22.376Z,6.07
2023-05-20T17:59:49.411Z,5.50
2023-05-20T18:02:16.079Z,5.67
2023-05-20T18:04:42.683Z,6.03
2023-05-20T18:07:09.433Z,6.60
2023-05-20T18:09:36.141Z,5.83
2023-05-20T18:12:02.927Z,7.10
2023-05-20T18:14:29.536Z,6.97
2023-05-20T18:16:57.369Z,6.10
2023-05-20T18:19:25.004Z,6.40
2023-05-20T18:21:51.783Z,6.80
2023-05-20T18:24:20.280Z,6.03
2023-05-20T18:26:47.582Z,6.33
2023-05-20T18:29:14.316Z,6.07
2023-05-20T18:31:43.284Z,6.83
2023-05-20T18:34:10.581Z,7.00
2023-05-20T18:36:37.370Z,6.47
2023-05-20T18:39:04.678Z,6.57
2023-05-20T18:41:39.358Z,6.43
2023-05-20T18:44:17.208Z,6.30
2023-05-20T18:46:44.157Z,7.00
2023-05-20T18:49:10.999Z,6.83
2023-05-20T18:51:41.296Z,6.97
2023-05-20T18:54:08.289Z,5.80
2023-05-20T18:56:35.660Z,6.60
2023-05-20T18:59:02.405Z,6.17
2023-05-20T19:01:29.142Z,6.33
2023-05-20T19:03:56.097Z,7.50
2023-05-20T19:06:22.784Z,7.07
2023-05-20T19:08:49.643Z,6.63
2023-05-20T19:11:16.451Z,6.50
2023-05-20T19:13:43.144Z,5.93
2023-05-20T19:16:10.012Z,7.40
2023-05-20T19:18:36.761Z,6.60
2023-05-20T19:21:03.604Z,7.10
2023-05-20T19:23:30.483Z,7.53
2023-05-20T19:25:57.211Z,6.87
2023-05-20T19:28:23.910Z,6.97
2023-05-20T19:30:50.703Z,6.80
2023-05-20T19:33:17.561Z,8.17
2023-05-20T19:35:44.196Z,6.80
2023-05-20T19:38:10.928Z,6.77
2023-05-20T19:40:37.695Z,7.67
2023-05-20T19:43:04.772Z,8.20
2023-05-20T19:45:32.134Z,7.30
2023-05-20T19:47:58.914Z,8.13
2023-05-20T19:50:25.654Z,8.07
2023-05-20T19:52:52.388Z,7.07
2023-05-20T19:55:19.101Z,7.40
2023-05-20T19:57:47.468Z,7.13
2023-05-20T20:00:15.428Z,10.30
2023-05-20T20:02:42.079Z,8.27
2023-05-20T20:05:09.881Z,6.97
2023-05-20T20:07:36.705Z,7.57
2023-05-20T20:10:03.796Z,9.00
2023-05-20T20:12:30.646Z,9.37
2023-05-20T20:14:57.334Z,8.03
2023-05-20T20:17:24.232Z,8.67
2023-05-20T20:19:53.296Z,7.90
2023-05-20T20:22:20.242Z,8.43
2023-05-20T20:24:47.213Z,8.37
2023-05-20T20:27:13.892Z,7.40
2023-05-20T20:29:43.488Z,8.40
2023-05-20T20:32:11.096Z,9.00
2023-05-20T20:34:37.960Z,8.83
2023-05-20T20:37:04.888Z,8.10
2023-05-20T20:39:31.647Z,8.30
2023-05-20T20:41:58.867Z,11.13
2023-05-20T20:44:26.574Z,8.60
2023-05-20T20:46:55.208Z,9.90
2023-05-20T20:49:23.043Z,8.27
2023-05-20T20:51:50.769Z,9.57
2023-05-20T20:54:17.473Z,10.03
2023-05-20T20:56:46.918Z,9.10
2023-05-20T20:59:15.545Z,9.50
2023-05-20T21:01:42.595Z,9.03
2023-05-20T21:04:09.628Z,9.40
2023-05-20T21:06:37.767Z,9.43
2023-05-20T21:09:04.699Z,8.43
2023-05-20T21:11:31.714Z,8.57
2023-05-20T21:13:58.500Z,9.27
2023-05-20T21:16:25.197Z,8.80
2023-05-20T21:18:51.984Z,9.70
2023-05-20T21:21:21.504Z,9.20
2023-05-20T21:23:50.760Z,8.53
2023-05-20T21:26:17.678Z,8.13
2023-05-20T21:28:44.292Z,8.80
2023-05-20T21:31:11.278Z,8.57
2023-05-20T21:33:38.028Z,7.63
2023-05-20T21:36:05.217Z,9.90
2023-05-20T21:38:31.949Z,9.00
2023-05-20T21:40:58.797Z,8.23
2023-05-20T21:43:25.524Z,8.73
2023-05-20T21:45:52.268Z,7.90
2023-05-20T21:48:18.992Z,8.50
2023-05-20T21:50:45.680Z,8.73
2023-05-20T21:53:12.368Z,8.97
2023-05-20T21:55:39.059Z,9.40
2023-05-20T21:58:05.940Z,9.50
2023-05-20T22:00:32.773Z,8.53
2023-05-20T22:02:59.491Z,8.73
2023-05-20T22:05:26.325Z,8.67
2023-05-20T22:07:54.530Z,10.13
2023-05-20T22:10:23.268Z,9.90
2023-05-20T22:12:50.886Z,10.33
2023-05-20T22:15:18.120Z,9.90
2023-05-20T22:17:47.414Z,10.83
2023-05-20T22:20:14.292Z,11.23
2023-05-20T22:22:40.933Z,9.73
2023-05-20T22:25:08.160Z,9.90
2023-05-20T22:27:34.933Z,11.53
2023-05-20T22:30:02.375Z,10.47
2023-05-20T22:32:29.081Z,9.80
2023-05-20T22:34:58.493Z,10.00
2023-05-20T22:37:26.688Z,9.90
2023-05-20T22:39:53.436Z,10.17
2023-05-20T22:42:20.468Z,9.30
2023-05-20T22:44:47.233Z,10.70
2023-05-20T22:47:13.999Z,10.63
2023-05-20T22:49:42.150Z,10.00
2023-05-20T22:52:08.836Z,9.80
2023-05-20T22:54:35.546Z,10.40
2023-05-20T22:57:02.278Z,10.30
2023-05-20T22:59:31.022Z,10.53
2023-05-20T23:01:57.950Z,9.70
2023-05-20T23:04:24.799Z,9.50
2023-05-20T23:06:53.737Z,10.03
2023-05-20T23:09:20.927Z,8.83
2023-05-20T23:11:47.622Z,10.70
2023-05-20T23:14:14.408Z,9.83
2023-05-20T23:16:42.025Z,9.57
2023-05-20T23:19:09.030Z,10.50
2023-05-20T23:21:37.226Z,10.47
2023-05-20T23:24:04.532Z,11.23
2023-05-20T23:26:31.491Z,10.00
2023-05-20T23:28:58.211Z,10.87
2023-05-20T23:31:26.830Z,9.80
2023-05-20T23:33:54.186Z,10.33
2023-05-20T23:36:20.932Z,10.90
2023-05-20T23:38:47.545Z,10.40
2023-05-20T23:41:14.198Z,9.90
2023-05-20T23:43:41.183Z,9.07
2023-05-20T23:46:08.204Z,9.80
2023-05-20T23:48:35.966Z,9.50
2023-05-20T23:51:03.061Z,9.53
2023-05-20T23:53:29.960Z,9.43
2023-05-20T23:55:56.583Z,9.43
2023-05-20T23:58:23.599Z,9.40
